sensor_id;sensor_type;location;lat;lon;timestamp;P1;durP1;ratioP1;P2;durP2;ratioP2
8909;SDS011;4490;49.072;8.804;2023-05-10T00:01:07;5.53;;;1.60;;
8909;SDS011;4490;49.072;8.804;2023-05-10T00:03:32;2.60;;;1.60;;
8909;SDS011;4490;49.072;8.804;2023-05-10T00:05:58;1.87;;;1.77;;
8909;SDS011;4490;49.072;8.804;2023-05-10T00:08:23;1.80;;;1.70;;
8909;SDS011;4490;49.072;8.804;2023-05-10T00:10:49;1.70;;;1.60;;
8909;SDS011;4490;49.072;8.804;2023-05-10T00:13:15;1.87;;;1.77;;
8909;SDS011;4490;49.072;8.804;2023-05-10T00:15:40;1.90;;;1.80;;
8909;SDS011;4490;49.072;8.804;2023-05-10T00:18:06;2.10;;;2.00;;
8909;SDS011;4490;49.072;8.804;2023-05-10T00:20:32;2.13;;;1.87;;
8909;SDS011;4490;49.072;8.804;2023-05-10T00:22:57;2.40;;;2.20;;
8909;SDS011;4490;49.072;8.804;2023-05-10T00:25:23;3.60;;;2.40;;
8909;SDS011;4490;49.072;8.804;2023-05-10T00:27:49;3.17;;;2.10;;
8909;SDS011;4490;49.072;8.804;2023-05-10T00:30:16;2.23;;;2.00;;
8909;SDS011;4490;49.072;8.804;2023-05-10T00:32:41;3.30;;;2.10;;
8909;SDS011;4490;49.072;8.804;2023-05-10T00:35:08;2.20;;;2.00;;
8909;SDS011;4490;49.072;8.804;2023-05-10T00:37:34;1.93;;;1.70;;
8909;SDS011;4490;49.072;8.804;2023-05-10T00:39:59;2.10;;;1.80;;
8909;SDS011;4490;49.072;8.804;2023-05-10T00:42:25;2.40;;;1.73;;
8909;SDS011;4490;49.072;8.804;2023-05-10T00:44:50;1.90;;;1.80;;
8909;SDS011;4490;49.072;8.804;2023-05-10T00:47:16;2.03;;;1.93;;
8909;SDS011;4490;49.072;8.804;2023-05-10T00:49:42;2.57;;;1.80;;
8909;SDS011;4490;49.072;8.804;2023-05-10T00:52:09;2.00;;;1.80;;
8909;SDS011;4490;49.072;8.804;2023-05-10T00:54:35;1.90;;;1.80;;
8909;SDS011;4490;49.072;8.804;2023-05-10T00:57:01;5.23;;;1.93;;
8909;SDS011;4490;49.072;8.804;2023-05-10T00:59:27;1.60;;;1.50;;
8909;SDS011;4490;49.072;8.804;2023-05-10T01:01:53;1.60;;;1.50;;
8909;SDS011;4490;49.072;8.804;2023-05-10T01:04:19;2.27;;;1.50;;
8909;SDS011;4490;49.072;8.804;2023-05-10T01:06:50;1.83;;;1.73;;
8909;SDS011;4490;49.072;8.804;2023-05-10T01:09:16;1.87;;;1.77;;
8909;SDS011;4490;49.072;8.804;2023-05-10T01:11:43;1.70;;;1.60;;
8909;SDS011;4490;49.072;8.804;2023-05-10T01:14:08;2.13;;;1.57;;
8909;SDS011;4490;49.072;8.804;2023-05-10T01:16:36;2.63;;;1.80;;
8909;SDS011;4490;49.072;8.804;2023-05-10T01:19:04;2.47;;;2.10;;
8909;SDS011;4490;49.072;8.804;2023-05-10T01:21:38;1.97;;;1.87;;
8909;SDS011;4490;49.072;8.804;2023-05-10T01:40:44;2.10;;;2.00;;
8909;SDS011;4490;49.072;8.804;2023-05-10T01:43:22;2.40;;;2.20;;
8909;SDS011;4490;49.072;8.804;2023-05-10T01:46:10;2.70;;;2.50;;
8909;SDS011;4490;49.072;8.804;2023-05-10T01:48:47;2.13;;;2.00;;
8909;SDS011;4490;49.072;8.804;2023-05-10T01:51:15;2.33;;;2.17;;
8909;SDS011;4490;49.072;8.804;2023-05-10T01:53:49;2.13;;;2.03;;
8909;SDS011;4490;49.072;8.804;2023-05-10T01:56:16;2.43;;;2.23;;
8909;SDS011;4490;49.072;8.804;2023-05-10T01:58:48;3.77;;;2.33;;
8909;SDS011;4490;49.072;8.804;2023-05-10T02:01:15;2.40;;;2.30;;
8909;SDS011;4490;49.072;8.804;2023-05-10T02:03:45;2.67;;;2.47;;
8909;SDS011;4490;49.072;8.804;2023-05-10T02:06:12;2.40;;;2.20;;
8909;SDS011;4490;49.072;8.804;2023-05-10T02:08:41;2.77;;;2.57;;
8909;SDS011;4490;49.072;8.804;2023-05-10T02:11:08;4.13;;;2.50;;
8909;SDS011;4490;49.072;8.804;2023-05-10T02:13:37;3.73;;;2.57;;
8909;SDS011;4490;49.072;8.804;2023-05-10T02:16:04;2.50;;;2.30;;
8909;SDS011;4490;49.072;8.804;2023-05-10T02:18:31;2.97;;;2.67;;
8909;SDS011;4490;49.072;8.804;2023-05-10T02:20:59;4.07;;;3.13;;
8909;SDS011;4490;49.072;8.804;2023-05-10T02:23:27;3.40;;;3.10;;
8909;SDS011;4490;49.072;8.804;2023-05-10T02:25:54;2.77;;;2.57;;
8909;SDS011;4490;49.072;8.804;2023-05-10T02:28:22;3.50;;;2.93;;
8909;SDS011;4490;49.072;8.804;2023-05-10T02:30:51;3.77;;;3.03;;
8909;SDS011;4490;49.072;8.804;2023-05-10T02:33:17;3.47;;;3.17;;
8909;SDS011;4490;49.072;8.804;2023-05-10T02:35:45;3.30;;;3.00;;
8909;SDS011;4490;49.072;8.804;2023-05-10T02:38:11;3.57;;;3.27;;
8909;SDS011;4490;49.072;8.804;2023-05-10T02:40:39;5.60;;;3.47;;
8909;SDS011;4490;49.072;8.804;2023-05-10T02:43:08;5.77;;;3.80;;
8909;SDS011;4490;49.072;8.804;2023-05-10T02:45:38;3.73;;;3.43;;
8909;SDS011;4490;49.072;8.804;2023-05-10T02:48:04;5.03;;;3.83;;
8909;SDS011;4490;49.072;8.804;2023-05-10T02:50:31;4.50;;;3.83;;
8909;SDS011;4490;49.072;8.804;2023-05-10T02:53:03;4.70;;;4.30;;
8909;SDS011;4490;49.072;8.804;2023-05-10T02:55:36;5.00;;;4.60;;
8909;SDS011;4490;49.072;8.804;2023-05-10T02:58:05;5.77;;;4.20;;
8909;SDS011;4490;49.072;8.804;2023-05-10T03:00:31;4.90;;;4.50;;
8909;SDS011;4490;49.072;8.804;2023-05-10T03:02:57;5.00;;;4.60;;
8909;SDS011;4490;49.072;8.804;2023-05-10T03:05:23;4.90;;;4.50;;
8909;SDS011;4490;49.072;8.804;2023-05-10T03:07:48;7.03;;;4.60;;
8909;SDS011;4490;49.072;8.804;2023-05-10T03:10:15;6.50;;;5.10;;
8909;SDS011;4490;49.072;8.804;2023-05-10T03:12:52;8.53;;;5.10;;
8909;SDS011;4490;49.072;8.804;2023-05-10T03:18:12;6.40;;;5.47;;
8909;SDS011;4490;49.072;8.804;2023-05-10T03:20:49;7.23;;;5.57;;
8909;SDS011;4490;49.072;8.804;2023-05-10T03:23:26;6.63;;;5.93;;
8909;SDS011;4490;49.072;8.804;2023-05-10T03:25:55;7.20;;;5.97;;
8909;SDS011;4490;49.072;8.804;2023-05-10T03:28:21;8.27;;;5.80;;
8909;SDS011;4490;49.072;8.804;2023-05-10T03:30:51;6.07;;;5.53;;
8909;SDS011;4490;49.072;8.804;2023-05-10T03:33:18;7.50;;;5.80;;
8909;SDS011;4490;49.072;8.804;2023-05-10T03:35:44;7.47;;;5.70;;
8909;SDS011;4490;49.072;8.804;2023-05-10T03:38:10;6.90;;;6.00;;
8909;SDS011;4490;49.072;8.804;2023-05-10T03:40:37;7.97;;;6.03;;
8909;SDS011;4490;49.072;8.804;2023-05-10T03:43:03;7.57;;;5.87;;
8909;SDS011;4490;49.072;8.804;2023-05-10T03:45:29;6.23;;;5.63;;
8909;SDS011;4490;49.072;8.804;2023-05-10T03:47:55;9.43;;;6.13;;
8909;SDS011;4490;49.072;8.804;2023-05-10T03:50:22;6.37;;;5.77;;
8909;SDS011;4490;49.072;8.804;2023-05-10T03:52:48;6.40;;;5.70;;
8909;SDS011;4490;49.072;8.804;2023-05-10T03:55:13;5.10;;;4.60;;
8909;SDS011;4490;49.072;8.804;2023-05-10T03:57:39;6.07;;;5.33;;
8909;SDS011;4490;49.072;8.804;2023-05-10T04:00:05;6.10;;;5.50;;
8909;SDS011;4490;49.072;8.804;2023-05-10T04:02:31;6.43;;;5.10;;
8909;SDS011;4490;49.072;8.804;2023-05-10T04:04:57;7.50;;;5.13;;
8909;SDS011;4490;49.072;8.804;2023-05-10T04:07:23;5.23;;;4.73;;
8909;SDS011;4490;49.072;8.804;2023-05-10T04:09:48;5.67;;;4.90;;
8909;SDS011;4490;49.072;8.804;2023-05-10T04:12:14;6.67;;;5.17;;
8909;SDS011;4490;49.072;8.804;2023-05-10T04:14:40;6.23;;;5.10;;
8909;SDS011;4490;49.072;8.804;2023-05-10T04:17:05;7.20;;;5.07;;
8909;SDS011;4490;49.072;8.804;2023-05-10T04:19:31;5.57;;;5.07;;
8909;SDS011;4490;49.072;8.804;2023-05-10T04:21:57;5.27;;;4.67;;
8909;SDS011;4490;49.072;8.804;2023-05-10T04:24:23;5.70;;;5.20;;
8909;SDS011;4490;49.072;8.804;2023-05-10T04:26:48;6.03;;;5.20;;
8909;SDS011;4490;49.072;8.804;2023-05-10T04:29:14;6.90;;;5.03;;
8909;SDS011;4490;49.072;8.804;2023-05-10T04:31:40;4.83;;;4.43;;
8909;SDS011;4490;49.072;8.804;2023-05-10T04:34:05;5.50;;;4.87;;
8909;SDS011;4490;49.072;8.804;2023-05-10T04:36:31;4.93;;;4.53;;
8909;SDS011;4490;49.072;8.804;2023-05-10T04:39:00;4.93;;;4.53;;
8909;SDS011;4490;49.072;8.804;2023-05-10T04:41:28;5.93;;;4.93;;
8909;SDS011;4490;49.072;8.804;2023-05-10T04:43:53;5.40;;;4.80;;
8909;SDS011;4490;49.072;8.804;2023-05-10T04:46:19;7.40;;;4.80;;
8909;SDS011;4490;49.072;8.804;2023-05-10T04:48:45;6.70;;;4.57;;
8909;SDS011;4490;49.072;8.804;2023-05-10T04:51:10;7.10;;;5.07;;
8909;SDS011;4490;49.072;8.804;2023-05-10T04:53:37;5.17;;;4.77;;
8909;SDS011;4490;49.072;8.804;2023-05-10T04:56:02;4.77;;;4.33;;
8909;SDS011;4490;49.072;8.804;2023-05-10T04:58:28;5.83;;;5.17;;
8909;SDS011;4490;49.072;8.804;2023-05-10T05:00:54;6.43;;;4.90;;
8909;SDS011;4490;49.072;8.804;2023-05-10T05:03:20;5.03;;;4.53;;
8909;SDS011;4490;49.072;8.804;2023-05-10T05:05:45;5.23;;;4.80;;
8909;SDS011;4490;49.072;8.804;2023-05-10T05:08:11;5.73;;;5.10;;
8909;SDS011;4490;49.072;8.804;2023-05-10T05:10:36;7.47;;;4.83;;
8909;SDS011;4490;49.072;8.804;2023-05-10T05:13:02;5.57;;;5.07;;
8909;SDS011;4490;49.072;8.804;2023-05-10T05:15:28;6.87;;;4.80;;
8909;SDS011;4490;49.072;8.804;2023-05-10T05:17:54;5.53;;;5.03;;
8909;SDS011;4490;49.072;8.804;2023-05-10T05:20:20;5.40;;;4.90;;
8909;SDS011;4490;49.072;8.804;2023-05-10T05:22:46;6.00;;;4.87;;
8909;SDS011;4490;49.072;8.804;2023-05-10T05:25:11;6.57;;;5.03;;
8909;SDS011;4490;49.072;8.804;2023-05-10T05:27:37;6.97;;;4.73;;
8909;SDS011;4490;49.072;8.804;2023-05-10T05:30:03;6.27;;;4.70;;
8909;SDS011;4490;49.072;8.804;2023-05-10T05:32:29;5.13;;;4.63;;
8909;SDS011;4490;49.072;8.804;2023-05-10T05:34:55;5.00;;;4.50;;
8909;SDS011;4490;49.072;8.804;2023-05-10T05:37:21;7.80;;;5.87;;
8909;SDS011;4490;49.072;8.804;2023-05-10T05:39:47;6.37;;;4.87;;
8909;SDS011;4490;49.072;8.804;2023-05-10T05:42:13;6.00;;;4.70;;
8909;SDS011;4490;49.072;8.804;2023-05-10T05:44:39;5.47;;;4.97;;
8909;SDS011;4490;49.072;8.804;2023-05-10T05:47:05;4.80;;;4.30;;
8909;SDS011;4490;49.072;8.804;2023-05-10T05:49:31;5.40;;;4.90;;
8909;SDS011;4490;49.072;8.804;2023-05-10T05:52:00;4.73;;;4.30;;
8909;SDS011;4490;49.072;8.804;2023-05-10T05:54:27;5.10;;;4.43;;
8909;SDS011;4490;49.072;8.804;2023-05-10T05:56:56;4.77;;;4.37;;
8909;SDS011;4490;49.072;8.804;2023-05-10T05:59:22;5.50;;;4.80;;
8909;SDS011;4490;49.072;8.804;2023-05-10T06:01:48;5.17;;;4.37;;
8909;SDS011;4490;49.072;8.804;2023-05-10T06:04:14;4.63;;;4.23;;
8909;SDS011;4490;49.072;8.804;2023-05-10T06:06:40;7.13;;;4.13;;
8909;SDS011;4490;49.072;8.804;2023-05-10T06:09:05;4.83;;;4.00;;
8909;SDS011;4490;49.072;8.804;2023-05-10T06:11:31;4.00;;;3.50;;
8909;SDS011;4490;49.072;8.804;2023-05-10T06:13:57;5.30;;;3.63;;
8909;SDS011;4490;49.072;8.804;2023-05-10T06:16:23;3.30;;;3.00;;
8909;SDS011;4490;49.072;8.804;2023-05-10T06:18:49;4.00;;;3.60;;
8909;SDS011;4490;49.072;8.804;2023-05-10T06:21:14;4.27;;;3.13;;
8909;SDS011;4490;49.072;8.804;2023-05-10T06:23:41;3.50;;;3.20;;
8909;SDS011;4490;49.072;8.804;2023-05-10T06:26:07;3.27;;;3.00;;
8909;SDS011;4490;49.072;8.804;2023-05-10T06:28:33;3.80;;;3.03;;
8909;SDS011;4490;49.072;8.804;2023-05-10T06:30:59;3.57;;;3.17;;
8909;SDS011;4490;49.072;8.804;2023-05-10T06:33:25;4.33;;;3.13;;
8909;SDS011;4490;49.072;8.804;2023-05-10T06:35:51;4.03;;;2.60;;
8909;SDS011;4490;49.072;8.804;2023-05-10T06:38:16;2.73;;;2.53;;
8909;SDS011;4490;49.072;8.804;2023-05-10T06:40:42;3.27;;;2.80;;
8909;SDS011;4490;49.072;8.804;2023-05-10T06:43:08;3.13;;;2.40;;
8909;SDS011;4490;49.072;8.804;2023-05-10T06:45:34;2.50;;;2.30;;
8909;SDS011;4490;49.072;8.804;2023-05-10T06:48:00;4.43;;;2.33;;
8909;SDS011;4490;49.072;8.804;2023-05-10T06:50:26;2.87;;;2.20;;
8909;SDS011;4490;49.072;8.804;2023-05-10T06:52:53;2.70;;;2.50;;
8909;SDS011;4490;49.072;8.804;2023-05-10T06:55:20;2.43;;;2.20;;
8909;SDS011;4490;49.072;8.804;2023-05-10T06:57:46;2.43;;;2.20;;
8909;SDS011;4490;49.072;8.804;2023-05-10T07:00:12;2.27;;;2.03;;
8909;SDS011;4490;49.072;8.804;2023-05-10T07:02:38;2.30;;;2.20;;
8909;SDS011;4490;49.072;8.804;2023-05-10T07:05:04;2.10;;;2.00;;
8909;SDS011;4490;49.072;8.804;2023-05-10T07:07:30;2.03;;;1.93;;
8909;SDS011;4490;49.072;8.804;2023-05-10T07:09:56;2.67;;;1.80;;
8909;SDS011;4490;49.072;8.804;2023-05-10T07:12:22;2.53;;;2.00;;
8909;SDS011;4490;49.072;8.804;2023-05-10T07:14:48;2.00;;;1.90;;
8909;SDS011;4490;49.072;8.804;2023-05-10T07:17:14;3.17;;;2.13;;
8909;SDS011;4490;49.072;8.804;2023-05-10T07:19:40;2.13;;;1.90;;
8909;SDS011;4490;49.072;8.804;2023-05-10T07:22:06;3.77;;;2.30;;
8909;SDS011;4490;49.072;8.804;2023-05-10T07:24:32;3.63;;;2.13;;
8909;SDS011;4490;49.072;8.804;2023-05-10T07:26:58;2.00;;;1.90;;
8909;SDS011;4490;49.072;8.804;2023-05-10T07:29:24;2.10;;;1.90;;
8909;SDS011;4490;49.072;8.804;2023-05-10T07:31:50;2.40;;;2.00;;
8909;SDS011;4490;49.072;8.804;2023-05-10T07:34:16;1.83;;;1.63;;
8909;SDS011;4490;49.072;8.804;2023-05-10T07:36:41;5.03;;;1.80;;
8909;SDS011;4490;49.072;8.804;2023-05-10T07:39:07;2.70;;;1.60;;
8909;SDS011;4490;49.072;8.804;2023-05-10T07:41:33;3.07;;;1.80;;
8909;SDS011;4490;49.072;8.804;2023-05-10T07:43:58;2.00;;;1.90;;
8909;SDS011;4490;49.072;8.804;2023-05-10T07:46:24;1.97;;;1.70;;
8909;SDS011;4490;49.072;8.804;2023-05-10T07:48:50;2.33;;;2.00;;
8909;SDS011;4490;49.072;8.804;2023-05-10T07:51:15;2.07;;;1.60;;
8909;SDS011;4490;49.072;8.804;2023-05-10T07:53:41;2.43;;;1.90;;
8909;SDS011;4490;49.072;8.804;2023-05-10T07:56:23;2.10;;;1.90;;
8909;SDS011;4490;49.072;8.804;2023-05-10T07:58:51;1.80;;;1.70;;
8909;SDS011;4490;49.072;8.804;2023-05-10T08:01:17;2.20;;;2.00;;
8909;SDS011;4490;49.072;8.804;2023-05-10T08:03:42;2.93;;;1.80;;
8909;SDS011;4490;49.072;8.804;2023-05-10T08:06:08;2.00;;;1.90;;
8909;SDS011;4490;49.072;8.804;2023-05-10T08:08:33;2.20;;;1.87;;
8909;SDS011;4490;49.072;8.804;2023-05-10T08:10:59;2.70;;;1.90;;
8909;SDS011;4490;49.072;8.804;2023-05-10T08:13:25;3.00;;;1.87;;
8909;SDS011;4490;49.072;8.804;2023-05-10T08:15:50;2.77;;;2.10;;
8909;SDS011;4490;49.072;8.804;2023-05-10T08:18:18;3.37;;;1.73;;
8909;SDS011;4490;49.072;8.804;2023-05-10T08:20:44;2.60;;;1.70;;
8909;SDS011;4490;49.072;8.804;2023-05-10T08:23:09;2.10;;;1.80;;
8909;SDS011;4490;49.072;8.804;2023-05-10T08:25:37;1.70;;;1.60;;
8909;SDS011;4490;49.072;8.804;2023-05-10T08:28:02;1.60;;;1.50;;
8909;SDS011;4490;49.072;8.804;2023-05-10T08:30:28;2.10;;;1.50;;
8909;SDS011;4490;49.072;8.804;2023-05-10T08:32:54;1.60;;;1.30;;
8909;SDS011;4490;49.072;8.804;2023-05-10T08:35:19;3.33;;;1.53;;
8909;SDS011;4490;49.072;8.804;2023-05-10T08:37:45;2.53;;;1.50;;
8909;SDS011;4490;49.072;8.804;2023-05-10T08:40:11;1.60;;;1.50;;
8909;SDS011;4490;49.072;8.804;2023-05-10T08:42:38;2.50;;;2.13;;
8909;SDS011;4490;49.072;8.804;2023-05-10T08:45:09;3.43;;;1.80;;
8909;SDS011;4490;49.072;8.804;2023-05-10T08:47:36;2.40;;;1.67;;
8909;SDS011;4490;49.072;8.804;2023-05-10T08:50:03;2.50;;;1.50;;
8909;SDS011;4490;49.072;8.804;2023-05-10T08:52:31;6.97;;;2.00;;
8909;SDS011;4490;49.072;8.804;2023-05-10T08:55:02;2.10;;;1.60;;
8909;SDS011;4490;49.072;8.804;2023-05-10T08:57:28;1.63;;;1.53;;
8909;SDS011;4490;49.072;8.804;2023-05-10T08:59:53;1.50;;;1.40;;
8909;SDS011;4490;49.072;8.804;2023-05-10T09:02:19;1.70;;;1.60;;
8909;SDS011;4490;49.072;8.804;2023-05-10T09:04:46;1.70;;;1.50;;
8909;SDS011;4490;49.072;8.804;2023-05-10T09:07:11;1.40;;;1.30;;
8909;SDS011;4490;49.072;8.804;2023-05-10T09:09:37;2.13;;;1.40;;
8909;SDS011;4490;49.072;8.804;2023-05-10T09:12:03;3.43;;;2.00;;
8909;SDS011;4490;49.072;8.804;2023-05-10T09:14:29;2.63;;;1.80;;
8909;SDS011;4490;49.072;8.804;2023-05-10T09:16:55;3.17;;;1.77;;
8909;SDS011;4490;49.072;8.804;2023-05-10T09:19:21;1.60;;;1.50;;
8909;SDS011;4490;49.072;8.804;2023-05-10T09:21:47;1.87;;;1.57;;
8909;SDS011;4490;49.072;8.804;2023-05-10T09:24:14;1.60;;;1.50;;
8909;SDS011;4490;49.072;8.804;2023-05-10T09:26:46;1.43;;;1.33;;
8909;SDS011;4490;49.072;8.804;2023-05-10T09:29:15;1.50;;;1.40;;
8909;SDS011;4490;49.072;8.804;2023-05-10T09:31:45;5.03;;;1.70;;
8909;SDS011;4490;49.072;8.804;2023-05-10T09:34:20;1.87;;;1.50;;
8909;SDS011;4490;49.072;8.804;2023-05-10T09:36:57;3.93;;;1.47;;
8909;SDS011;4490;49.072;8.804;2023-05-10T09:39:43;2.50;;;1.90;;
8909;SDS011;4490;49.072;8.804;2023-05-10T09:42:09;2.73;;;1.77;;
8909;SDS011;4490;49.072;8.804;2023-05-10T09:44:35;1.87;;;1.73;;
8909;SDS011;4490;49.072;8.804;2023-05-10T09:47:02;2.00;;;1.90;;
8909;SDS011;4490;49.072;8.804;2023-05-10T09:49:28;3.70;;;2.07;;
8909;SDS011;4490;49.072;8.804;2023-05-10T09:52:01;3.00;;;2.07;;
8909;SDS011;4490;49.072;8.804;2023-05-10T09:54:28;4.83;;;2.03;;
8909;SDS011;4490;49.072;8.804;2023-05-10T09:56:54;2.10;;;1.73;;
8909;SDS011;4490;49.072;8.804;2023-05-10T09:59:19;1.87;;;1.70;;
8909;SDS011;4490;49.072;8.804;2023-05-10T10:01:51;3.37;;;1.60;;
8909;SDS011;4490;49.072;8.804;2023-05-10T10:04:24;1.67;;;1.57;;
8909;SDS011;4490;49.072;8.804;2023-05-10T10:07:00;2.47;;;1.90;;
8909;SDS011;4490;49.072;8.804;2023-05-10T10:09:29;2.00;;;1.90;;
8909;SDS011;4490;49.072;8.804;2023-05-10T10:11:56;1.90;;;1.80;;
8909;SDS011;4490;49.072;8.804;2023-05-10T10:14:22;2.27;;;1.87;;
8909;SDS011;4490;49.072;8.804;2023-05-10T10:16:51;4.50;;;1.73;;
8909;SDS011;4490;49.072;8.804;2023-05-10T10:19:20;3.30;;;1.90;;
8909;SDS011;4490;49.072;8.804;2023-05-10T10:21:49;1.80;;;1.70;;
8909;SDS011;4490;49.072;8.804;2023-05-10T10:24:15;5.13;;;2.00;;
8909;SDS011;4490;49.072;8.804;2023-05-10T10:26:41;2.47;;;1.63;;
8909;SDS011;4490;49.072;8.804;2023-05-10T10:31:47;2.50;;;1.63;;
8909;SDS011;4490;49.072;8.804;2023-05-10T10:34:27;1.70;;;1.60;;
8909;SDS011;4490;49.072;8.804;2023-05-10T10:36:55;2.00;;;1.90;;
8909;SDS011;4490;49.072;8.804;2023-05-10T10:39:22;2.40;;;1.70;;
8909;SDS011;4490;49.072;8.804;2023-05-10T10:52:22;3.33;;;1.80;;
8909;SDS011;4490;49.072;8.804;2023-05-10T10:55:02;4.33;;;2.10;;
8909;SDS011;4490;49.072;8.804;2023-05-10T10:57:32;5.33;;;1.83;;
8909;SDS011;4490;49.072;8.804;2023-05-10T11:00:20;2.23;;;2.03;;
8909;SDS011;4490;49.072;8.804;2023-05-10T11:02:50;5.13;;;2.00;;
8909;SDS011;4490;49.072;8.804;2023-05-10T11:07:59;2.47;;;2.10;;
8909;SDS011;4490;49.072;8.804;2023-05-10T11:10:25;5.27;;;2.20;;
8909;SDS011;4490;49.072;8.804;2023-05-10T11:13:01;2.57;;;2.20;;
8909;SDS011;4490;49.072;8.804;2023-05-10T11:15:32;4.20;;;2.30;;
8909;SDS011;4490;49.072;8.804;2023-05-10T11:17:59;2.07;;;1.87;;
8909;SDS011;4490;49.072;8.804;2023-05-10T11:20:28;1.97;;;1.80;;
8909;SDS011;4490;49.072;8.804;2023-05-10T11:22:59;3.80;;;1.80;;
8909;SDS011;4490;49.072;8.804;2023-05-10T11:25:41;2.87;;;1.80;;
8909;SDS011;4490;49.072;8.804;2023-05-10T11:28:08;2.20;;;2.00;;
8909;SDS011;4490;49.072;8.804;2023-05-10T11:30:35;2.40;;;2.20;;
8909;SDS011;4490;49.072;8.804;2023-05-10T11:33:01;2.30;;;2.00;;
8909;SDS011;4490;49.072;8.804;2023-05-10T11:35:27;3.97;;;2.10;;
8909;SDS011;4490;49.072;8.804;2023-05-10T11:37:53;3.20;;;2.37;;
8909;SDS011;4490;49.072;8.804;2023-05-10T11:40:21;6.87;;;2.60;;
8909;SDS011;4490;49.072;8.804;2023-05-10T11:42:48;2.67;;;2.00;;
8909;SDS011;4490;49.072;8.804;2023-05-10T11:45:14;2.90;;;2.10;;
8909;SDS011;4490;49.072;8.804;2023-05-10T11:47:40;3.10;;;2.20;;
8909;SDS011;4490;49.072;8.804;2023-05-10T11:50:08;2.67;;;2.10;;
8909;SDS011;4490;49.072;8.804;2023-05-10T11:52:35;4.63;;;2.00;;
8909;SDS011;4490;49.072;8.804;2023-05-10T11:55:02;2.27;;;2.00;;
8909;SDS011;4490;49.072;8.804;2023-05-10T11:57:28;3.23;;;2.50;;
8909;SDS011;4490;49.072;8.804;2023-05-10T11:59:56;2.90;;;2.10;;
8909;SDS011;4490;49.072;8.804;2023-05-10T12:02:22;2.40;;;2.20;;
8909;SDS011;4490;49.072;8.804;2023-05-10T12:04:48;2.73;;;2.20;;
8909;SDS011;4490;49.072;8.804;2023-05-10T12:07:14;2.30;;;2.10;;
8909;SDS011;4490;49.072;8.804;2023-05-10T12:09:44;4.07;;;2.30;;
8909;SDS011;4490;49.072;8.804;2023-05-10T12:12:16;2.47;;;2.03;;
8909;SDS011;4490;49.072;8.804;2023-05-10T12:14:41;3.78;;;1.83;;
8909;SDS011;4490;49.072;8.804;2023-05-10T12:17:11;1.90;;;1.70;;
8909;SDS011;4490;49.072;8.804;2023-05-10T12:19:38;1.97;;;1.80;;
8909;SDS011;4490;49.072;8.804;2023-05-10T12:22:05;3.40;;;2.10;;
8909;SDS011;4490;49.072;8.804;2023-05-10T12:24:30;4.18;;;1.95;;
8909;SDS011;4490;49.072;8.804;2023-05-10T12:26:59;3.20;;;2.38;;
8909;SDS011;4490;49.072;8.804;2023-05-10T12:29:29;2.67;;;1.95;;
8909;SDS011;4490;49.072;8.804;2023-05-10T12:31:56;3.03;;;1.63;;
8909;SDS011;4490;49.072;8.804;2023-05-10T12:34:29;3.42;;;1.85;;
8909;SDS011;4490;49.072;8.804;2023-05-10T12:36:55;2.37;;;1.90;;
8909;SDS011;4490;49.072;8.804;2023-05-10T12:39:21;2.67;;;1.75;;
8909;SDS011;4490;49.072;8.804;2023-05-10T12:41:47;4.15;;;1.65;;
8909;SDS011;4490;49.072;8.804;2023-05-10T12:44:13;2.10;;;1.90;;
8909;SDS011;4490;49.072;8.804;2023-05-10T12:46:39;4.87;;;1.90;;
8909;SDS011;4490;49.072;8.804;2023-05-10T12:49:04;8.23;;;2.20;;
8909;SDS011;4490;49.072;8.804;2023-05-10T12:51:30;2.40;;;1.80;;
8909;SDS011;4490;49.072;8.804;2023-05-10T12:53:56;1.93;;;1.60;;
8909;SDS011;4490;49.072;8.804;2023-05-10T12:56:21;1.63;;;1.37;;
8909;SDS011;4490;49.072;8.804;2023-05-10T12:58:47;3.40;;;1.50;;
8909;SDS011;4490;49.072;8.804;2023-05-10T13:01:13;1.97;;;1.50;;
8909;SDS011;4490;49.072;8.804;2023-05-10T13:03:39;2.53;;;1.40;;
8909;SDS011;4490;49.072;8.804;2023-05-10T13:06:05;1.98;;;1.30;;
8909;SDS011;4490;49.072;8.804;2023-05-10T13:08:31;2.00;;;1.30;;
8909;SDS011;4490;49.072;8.804;2023-05-10T13:10:59;2.58;;;1.30;;
8909;SDS011;4490;49.072;8.804;2023-05-10T13:13:25;1.60;;;1.10;;
8909;SDS011;4490;49.072;8.804;2023-05-10T13:15:51;1.77;;;1.38;;
8909;SDS011;4490;49.072;8.804;2023-05-10T13:18:16;1.73;;;1.38;;
8909;SDS011;4490;49.072;8.804;2023-05-10T13:20:42;1.55;;;1.45;;
8909;SDS011;4490;49.072;8.804;2023-05-10T13:23:09;1.70;;;1.33;;
8909;SDS011;4490;49.072;8.804;2023-05-10T13:25:35;2.25;;;1.55;;
8909;SDS011;4490;49.072;8.804;2023-05-10T13:28:01;2.10;;;1.52;;
8909;SDS011;4490;49.072;8.804;2023-05-10T13:30:27;1.50;;;1.33;;
8909;SDS011;4490;49.072;8.804;2023-05-10T13:32:53;3.33;;;1.35;;
8909;SDS011;4490;49.072;8.804;2023-05-10T13:35:19;2.67;;;1.55;;
8909;SDS011;4490;49.072;8.804;2023-05-10T13:37:45;1.55;;;1.45;;
8909;SDS011;4490;49.072;8.804;2023-05-10T13:40:11;3.45;;;2.67;;
8909;SDS011;4490;49.072;8.804;2023-05-10T13:42:37;1.50;;;1.40;;
8909;SDS011;4490;49.072;8.804;2023-05-10T13:45:02;3.17;;;1.80;;
8909;SDS011;4490;49.072;8.804;2023-05-10T13:47:28;1.30;;;1.20;;
8909;SDS011;4490;49.072;8.804;2023-05-10T13:49:55;3.97;;;2.08;;
8909;SDS011;4490;49.072;8.804;2023-05-10T13:52:22;1.50;;;1.33;;
8909;SDS011;4490;49.072;8.804;2023-05-10T13:54:48;2.17;;;1.60;;
8909;SDS011;4490;49.072;8.804;2023-05-10T13:57:13;4.38;;;1.40;;
8909;SDS011;4490;49.072;8.804;2023-05-10T13:59:41;2.13;;;1.30;;
8909;SDS011;4490;49.072;8.804;2023-05-10T14:02:07;1.70;;;1.30;;
8909;SDS011;4490;49.072;8.804;2023-05-10T14:04:32;4.20;;;3.50;;
8909;SDS011;4490;49.072;8.804;2023-05-10T14:07:00;2.28;;;1.50;;
8909;SDS011;4490;49.072;8.804;2023-05-10T14:09:25;4.18;;;2.47;;
8909;SDS011;4490;49.072;8.804;2023-05-10T14:11:51;2.38;;;1.30;;
8909;SDS011;4490;49.072;8.804;2023-05-10T14:14:17;1.73;;;1.20;;
8909;SDS011;4490;49.072;8.804;2023-05-10T14:16:43;1.77;;;1.40;;
8909;SDS011;4490;49.072;8.804;2023-05-10T14:19:09;1.95;;;1.30;;
8909;SDS011;4490;49.072;8.804;2023-05-10T14:21:35;1.40;;;1.30;;
8909;SDS011;4490;49.072;8.804;2023-05-10T14:24:01;1.20;;;1.13;;
8909;SDS011;4490;49.072;8.804;2023-05-10T14:26:27;1.10;;;1.10;;
8909;SDS011;4490;49.072;8.804;2023-05-10T14:28:52;1.60;;;1.20;;
8909;SDS011;4490;49.072;8.804;2023-05-10T14:31:18;1.13;;;1.08;;
8909;SDS011;4490;49.072;8.804;2023-05-10T14:33:49;2.20;;;1.17;;
8909;SDS011;4490;49.072;8.804;2023-05-10T14:36:15;2.55;;;2.10;;
8909;SDS011;4490;49.072;8.804;2023-05-10T14:38:40;1.30;;;1.20;;
8909;SDS011;4490;49.072;8.804;2023-05-10T14:41:06;1.30;;;1.15;;
8909;SDS011;4490;49.072;8.804;2023-05-10T14:43:32;3.88;;;1.30;;
8909;SDS011;4490;49.072;8.804;2023-05-10T14:45:58;1.60;;;1.40;;
8909;SDS011;4490;49.072;8.804;2023-05-10T14:48:23;2.50;;;1.83;;
8909;SDS011;4490;49.072;8.804;2023-05-10T14:50:49;1.43;;;1.33;;
8909;SDS011;4490;49.072;8.804;2023-05-10T14:53:15;2.33;;;1.77;;
8909;SDS011;4490;49.072;8.804;2023-05-10T14:55:41;2.90;;;1.88;;
8909;SDS011;4490;49.072;8.804;2023-05-10T14:58:07;2.57;;;1.33;;
8909;SDS011;4490;49.072;8.804;2023-05-10T15:00:32;2.22;;;2.03;;
8909;SDS011;4490;49.072;8.804;2023-05-10T15:02:58;2.05;;;1.58;;
8909;SDS011;4490;49.072;8.804;2023-05-10T15:05:24;2.38;;;1.48;;
8909;SDS011;4490;49.072;8.804;2023-05-10T15:07:49;3.80;;;1.70;;
8909;SDS011;4490;49.072;8.804;2023-05-10T15:10:15;2.83;;;1.30;;
8909;SDS011;4490;49.072;8.804;2023-05-10T15:12:41;1.40;;;1.30;;
8909;SDS011;4490;49.072;8.804;2023-05-10T15:15:07;2.40;;;1.30;;
8909;SDS011;4490;49.072;8.804;2023-05-10T15:17:33;1.58;;;1.42;;
8909;SDS011;4490;49.072;8.804;2023-05-10T15:19:59;1.60;;;1.33;;
8909;SDS011;4490;49.072;8.804;2023-05-10T15:22:25;3.58;;;1.25;;
8909;SDS011;4490;49.072;8.804;2023-05-10T15:24:53;1.40;;;1.10;;
8909;SDS011;4490;49.072;8.804;2023-05-10T15:27:18;1.58;;;1.20;;
8909;SDS011;4490;49.072;8.804;2023-05-10T15:29:44;2.90;;;1.33;;
8909;SDS011;4490;49.072;8.804;2023-05-10T15:32:09;1.92;;;1.20;;
8909;SDS011;4490;49.072;8.804;2023-05-10T15:34:35;1.30;;;1.10;;
8909;SDS011;4490;49.072;8.804;2023-05-10T15:37:01;1.83;;;1.23;;
8909;SDS011;4490;49.072;8.804;2023-05-10T15:39:26;1.38;;;1.05;;
8909;SDS011;4490;49.072;8.804;2023-05-10T15:41:52;1.38;;;1.02;;
8909;SDS011;4490;49.072;8.804;2023-05-10T15:44:17;1.42;;;1.33;;
8909;SDS011;4490;49.072;8.804;2023-05-10T15:46:43;1.33;;;1.20;;
8909;SDS011;4490;49.072;8.804;2023-05-10T15:49:09;2.78;;;1.35;;